Flight Track Log - Related Links

Times and Time Zones

All times are in EDT time to prevent confusion due to time zone crossing. See the RAX500 flight status page for this flight to view local times or setup timezone preferences in your user account.

Time Position Orientation Groundspeed Altitude Reporting Facility
EDT Latitude Longitude Course Direction KTS MPH feet Rate Location/Type
Tue 06:20:35 PM 38.9667 -77.4333 North 181 208 1,100  Level Potomac TRACON
Tue 06:21:35 PM 39.0167 -77.4667 333° Northwest 214 246 3,100 2,636 Climbing Potomac TRACON
Tue 06:23:28 PM 39.1294 -77.5208 340° North 256 295 8,700 2,709 Climbing Washington Center
Tue 06:24:30 PM 39.2061 -77.5497 344° North 268 308 11,000 2,311 Climbing Washington Center
Tue 06:25:30 PM 39.2972 -77.5736 349° North 302 348 13,400 1,765 Climbing Washington Center
Tue 06:26:00 PM 39.5520 -77.4500 North  Level FlightAware Approximate
Tue 06:26:29 PM 39.3886 -77.5947 350° North 323 372 14,500  Level Washington Center
Tue 06:27:30 PM 39.4664 -77.6856 318° Northwest 342 394 15,100 555 Climbing Washington Center
Tue 06:28:28 PM 39.5458 -77.7875 315° West 375 432 15,600 958 Climbing Washington Center
Tue 06:29:29 PM 39.6297 -77.8683 323° Northwest 380 437 17,000 744 Climbing Washington Center
Tue 06:30:29 PM 39.7197 -77.9575 323° Northwest 393 452 17,100  Climbing Washington Center
Tue 06:31:58 PM 39.8572 -78.1247 317° Northwest 409 471 17,000 -40 Descending Cleveland Center
Tue 06:32:58 PM 39.9264 -78.2414 308° West 414 476 17,000 50 Level Cleveland Center
Tue 06:33:58 PM 39.9914 -78.3636 305° West 414 476 17,100 500 Climbing Cleveland Center
Tue 06:34:58 PM 40.0533 -78.4486 314° West 409 471 18,000 1,500 Climbing Cleveland Center
Tue 06:35:58 PM 40.1514 -78.5622 318° Northwest 402 463 20,100 1,800 Climbing Cleveland Center
Tue 06:36:58 PM 40.2303 -78.6606 316° Northwest 396 456 21,600 950 Climbing Cleveland Center
Tue 06:37:58 PM 40.2950 -78.7919 303° West 403 464 22,000 300 Climbing Cleveland Center
Tue 06:38:58 PM 40.3367 -78.9406 290° West 416 479 22,200 750 Climbing Cleveland Center
Tue 06:39:58 PM 40.3783 -79.0894 290° West 429 494 23,500 1,450 Climbing Cleveland Center
Tue 06:40:58 PM 40.4303 -79.2247 297° West 429 494 25,100 1,500 Climbing Cleveland Center
Tue 06:41:58 PM 40.4942 -79.3492 304° West 416 479 26,500 1,150 Climbing Cleveland Center
Tue 06:42:58 PM 40.5414 -79.4903 294° West 416 479 27,400 700 Climbing Cleveland Center
Tue 06:43:58 PM 40.5761 -79.6400 287° West 422 486 27,900 300 Climbing Cleveland Center
Tue 06:44:58 PM 40.6169 -79.7925 289° West 428 493 28,000 50 Climbing Cleveland Center
Tue 06:45:58 PM 40.6700 -79.9397 295° West 440 506 28,000  Level Cleveland Center
Tue 06:46:58 PM 40.7186 -80.0956 292° West 452 520 28,000  Level Cleveland Center
Tue 06:47:58 PM 40.7650 -80.2458 292° West 452 520 28,000  Level Cleveland Center
Tue 06:48:58 PM 40.8153 -80.3967 294° West 452 520 28,000  Level Cleveland Center
Tue 06:49:58 PM 40.8803 -80.5336 302° West 447 514 28,000  Level Cleveland Center
Tue 06:50:58 PM 40.9572 -80.6600 309° West 447 514 28,000  Level Cleveland Center
Tue 06:51:58 PM 41.0281 -80.7978 304° West 447 514 28,000  Level Cleveland Center
Tue 06:52:58 PM 41.0797 -80.9439 295° West 447 514 28,000  Level Cleveland Center
Tue 06:53:58 PM 41.1250 -81.0767 294° West 442 509 28,000  Level Cleveland Center
Tue 06:54:58 PM 41.1892 -81.2122 302° West 442 509 28,000  Level Cleveland Center
Tue 06:55:58 PM 41.2592 -81.3456 305° West 442 509 28,000  Level Cleveland Center
Tue 06:56:58 PM 41.3308 -81.4956 303° West 442 509 28,000  Level Cleveland Center
Tue 06:57:58 PM 41.3964 -81.6350 302° West 447 514 28,000  Level Cleveland Center
Tue 06:58:58 PM 41.4619 -81.7581 305° West 454 522 28,000 -100 Level Cleveland Center
Tue 06:59:58 PM 41.5272 -81.8922 303° West 445 512 27,800 -2,050 Descending Cleveland Center
Tue 07:00:58 PM 41.5797 -82.0350 296° West 429 494 23,900 -3,800 Descending Cleveland Center
Tue 07:01:58 PM 41.6319 -82.1778 296° West 424 488 20,200 -3,350 Descending Cleveland Center
Tue 07:02:58 PM 41.6989 -82.3047 305° West 410 472 17,200 -3,093 Descending Cleveland Center
Tue 07:03:35 PM 41.7356 -82.3667 308° West 352 405 15,200 -3,375 Descending Cleveland Center
Tue 07:04:18 PM 41.7844 -82.4433 311° West 342 394 12,700 -3,398 Descending Cleveland Center
Tue 07:04:58 PM 41.8081 -82.5192 293° West 363 418 10,500 -1,620 Descending Cleveland Center
Tue 07:05:58 PM 41.8458 -82.6347 294° West 345 397 10,000 -1,300 Descending Cleveland Center
Tue 07:06:58 PM 41.9178 -82.6900 330° Northwest 301 346 7,900 -2,281 Descending Cleveland Center
Tue 07:07:59 PM 41.9856 -82.7425 330° Northwest 295 339 5,400 -1,450 Descending Cleveland Center
Tue 07:08:58 PM 42.0469 -82.7950 328° Northwest 278 320 5,000 -202 Descending Cleveland Center
Tue 07:09:58 PM 42.1150 -82.8422 333° Northwest 270 311 5,000 -500 Level Cleveland Center
Tue 07:10:58 PM 42.1831 -82.8697 343° North 259 298 4,000 -550 Descending Cleveland Center
Tue 07:11:58 PM 42.2556 -82.8947 346° North 259 298 3,900 -250 Descending Cleveland Center
Tue 07:12:58 PM 42.3239 -82.9253 342° North 259 298 3,500 -415 Descending Cleveland Center
Tue 07:14:08 PM 42.4019 -82.9789 333° Northwest 249 287 3,000 -229 Descending Cleveland Center
Tue 07:15:09 PM 42.4572 -83.0231 329° Northwest 240 276 3,000  Level Cleveland Center
Tue 07:16:10 PM 42.5100 -83.0900 317° Northwest 251 289 3,000  Level Cleveland Center
Tue 07:17:17 PM 42.5603 -83.1681 311° West 254 292 3,000 47 Level Cleveland Center
Tue 07:18:17 PM 42.6108 -83.2381 314° West 252 290 3,100 -198 Climbing Cleveland Center
Tue 07:19:18 PM 42.6492 -83.2961 312° West 179 206 2,600 -639 Descending Cleveland Center
Tue 07:20:19 PM 42.6667 -83.3506 294° West 151 174 1,800 -787 Descending Cleveland Center

Login

Don't have an account? Register now (free) for customized features, flight alerts, and more!